createdAt,value
2017-01-12T00:00:07.666Z,949.98
2017-01-12T00:01:08.439Z,950.00
2017-01-12T00:02:07.931Z,950.06
2017-01-12T00:03:07.764Z,950.04
2017-01-12T00:04:07.617Z,950.04
2017-01-12T00:05:18.112Z,950.08
2017-01-12T00:06:07.779Z,950.13
2017-01-12T00:07:07.268Z,950.08
2017-01-12T00:08:07.766Z,950.08
2017-01-12T00:09:07.391Z,950.10
2017-01-12T00:10:07.959Z,950.13
2017-01-12T00:11:08.589Z,950.12
2017-01-12T00:12:08.096Z,950.16
2017-01-12T00:13:07.584Z,950.17
2017-01-12T00:14:08.061Z,950.14
2017-01-12T00:15:07.609Z,950.13
2017-01-12T00:16:08.249Z,950.17
2017-01-12T00:17:07.888Z,950.15
2017-01-12T00:18:08.115Z,950.20
2017-01-12T00:19:07.917Z,950.21
2017-01-12T00:20:07.360Z,950.21
2017-01-12T00:21:07.694Z,950.22
2017-01-12T00:22:08.349Z,950.17
2017-01-12T00:23:07.802Z,950.18
2017-01-12T00:24:07.331Z,950.23
2017-01-12T00:25:07.786Z,950.20
2017-01-12T00:26:07.266Z,950.18
2017-01-12T00:27:07.883Z,950.23
2017-01-12T00:28:07.508Z,950.21
2017-01-12T00:29:08.248Z,950.19
2017-01-12T00:30:07.797Z,950.21
2017-01-12T00:31:07.527Z,950.23
2017-01-12T00:32:07.351Z,950.24
2017-01-12T00:33:07.764Z,950.31
2017-01-12T00:34:07.637Z,950.15
2017-01-12T00:35:08.154Z,950.19
2017-01-12T00:36:07.810Z,950.18
2017-01-12T00:37:07.553Z,950.16
2017-01-12T00:38:08.465Z,950.14
2017-01-12T00:39:08.057Z,950.10
2017-01-12T00:40:07.961Z,950.15
2017-01-12T00:41:07.903Z,950.12
2017-01-12T00:42:07.673Z,950.15
2017-01-12T00:43:08.192Z,950.10
2017-01-12T00:44:07.542Z,950.16
2017-01-12T00:45:08.009Z,950.17
2017-01-12T00:46:07.512Z,950.18
2017-01-12T00:47:08.018Z,950.19
2017-01-12T00:48:07.318Z,950.25
2017-01-12T00:49:08.233Z,950.38
2017-01-12T00:50:08.009Z,950.33
2017-01-12T00:51:07.902Z,950.34
2017-01-12T00:52:07.555Z,950.39
2017-01-12T00:53:08.194Z,950.39
2017-01-12T00:54:07.781Z,950.42
2017-01-12T00:55:07.290Z,950.42
2017-01-12T00:56:07.783Z,950.41
2017-01-12T00:57:07.830Z,950.56
2017-01-12T00:58:07.251Z,950.53
2017-01-12T00:59:08.160Z,950.39
2017-01-12T01:00:07.993Z,950.52
2017-01-12T01:01:07.460Z,950.44
2017-01-12T01:02:07.943Z,950.56
2017-01-12T01:03:07.822Z,950.51
2017-01-12T01:04:07.837Z,950.55
2017-01-12T01:05:17.311Z,950.55
2017-01-12T01:06:07.749Z,950.59
2017-01-12T01:07:08.083Z,950.59
2017-01-12T01:08:07.375Z,950.61
2017-01-12T01:09:08.043Z,950.76
2017-01-12T01:10:08.087Z,950.68
2017-01-12T01:11:07.583Z,950.57
2017-01-12T01:12:08.090Z,950.68
2017-01-12T01:13:07.621Z,950.77
2017-01-12T01:14:07.265Z,950.70
2017-01-12T01:15:07.825Z,950.66
2017-01-12T01:16:07.442Z,950.72
2017-01-12T01:17:08.104Z,950.71
2017-01-12T01:18:07.440Z,950.75
2017-01-12T01:19:08.008Z,950.89
2017-01-12T01:20:07.531Z,950.83
2017-01-12T01:21:08.045Z,950.93
2017-01-12T01:22:07.560Z,950.89
2017-01-12T01:23:08.110Z,950.91
2017-01-12T01:24:07.910Z,950.92
2017-01-12T01:25:07.774Z,950.99
2017-01-12T01:26:07.251Z,950.94
2017-01-12T01:27:08.141Z,950.92
2017-01-12T01:28:07.627Z,950.97
2017-01-12T01:29:08.151Z,950.99
2017-01-12T01:30:08.001Z,951.05
2017-01-12T01:31:07.452Z,951.25
2017-01-12T01:32:07.873Z,951.03
2017-01-12T01:33:08.404Z,951.11
2017-01-12T01:34:08.396Z,951.14
2017-01-12T01:35:07.969Z,951.17
2017-01-12T01:36:07.450Z,951.25
2017-01-12T01:37:07.976Z,951.31
2017-01-12T01:38:07.850Z,951.24
2017-01-12T01:39:07.639Z,951.26
2017-01-12T01:40:08.240Z,951.36
2017-01-12T01:41:08.014Z,951.38
2017-01-12T01:42:07.508Z,951.35
2017-01-12T01:43:07.622Z,951.45
2017-01-12T01:44:07.491Z,951.40
2017-01-12T01:45:08.056Z,951.36
2017-01-12T01:46:07.522Z,951.43
2017-01-12T01:47:08.275Z,951.55
2017-01-12T01:48:08.051Z,951.45
2017-01-12T01:49:07.750Z,951.40
2017-01-12T01:50:07.799Z,951.40
2017-01-12T01:51:07.378Z,951.47
2017-01-12T01:52:07.897Z,951.36
2017-01-12T01:53:07.534Z,951.49
2017-01-12T01:54:07.282Z,951.45
2017-01-12T01:55:07.302Z,951.50
2017-01-12T01:56:08.172Z,951.46
2017-01-12T01:57:07.860Z,951.52
2017-01-12T01:58:07.724Z,951.43
2017-01-12T01:59:08.200Z,951.48
2017-01-12T02:00:07.734Z,951.48
2017-01-12T02:01:08.121Z,951.51
2017-01-12T02:02:07.651Z,951.54
2017-01-12T02:03:07.553Z,951.54
2017-01-12T02:04:08.411Z,951.62
2017-01-12T02:05:17.912Z,951.59
2017-01-12T02:06:07.400Z,951.57
2017-01-12T02:07:08.455Z,951.66
2017-01-12T02:08:07.967Z,951.67
2017-01-12T02:09:07.522Z,951.58
2017-01-12T02:10:08.294Z,951.68
2017-01-12T02:11:08.218Z,951.66
2017-01-12T02:12:07.920Z,951.67
2017-01-12T02:13:07.922Z,951.63
2017-01-12T02:14:08.189Z,951.70
2017-01-12T02:15:07.941Z,951.70
2017-01-12T02:16:07.562Z,951.67
2017-01-12T02:17:08.229Z,951.67
2017-01-12T02:18:07.750Z,951.71
2017-01-12T02:19:08.248Z,951.70
2017-01-12T02:20:07.751Z,951.65
2017-01-12T02:21:07.425Z,951.65
2017-01-12T02:22:08.294Z,951.70
2017-01-12T02:23:07.718Z,951.67
2017-01-12T02:24:07.940Z,951.68
2017-01-12T02:25:07.632Z,951.63
2017-01-12T02:26:07.720Z,951.65
2017-01-12T02:27:08.257Z,951.65
2017-01-12T02:28:08.212Z,951.66
2017-01-12T02:29:07.930Z,951.63
2017-01-12T02:30:07.399Z,951.67
2017-01-12T02:31:07.968Z,951.71
2017-01-12T02:32:07.812Z,951.71
2017-01-12T02:33:07.651Z,951.68
2017-01-12T02:34:08.324Z,951.66
2017-01-12T02:35:08.002Z,951.66
2017-01-12T02:36:08.077Z,951.63
2017-01-12T02:37:07.701Z,951.66
2017-01-12T02:38:07.550Z,951.69
2017-01-12T02:39:08.265Z,951.64
2017-01-12T02:40:07.738Z,951.62
2017-01-12T02:41:07.410Z,951.59
2017-01-12T02:42:08.009Z,951.62
2017-01-12T02:43:08.452Z,951.59
2017-01-12T02:44:08.213Z,951.59
2017-01-12T02:45:07.774Z,951.56
2017-01-12T02:46:07.680Z,951.57
2017-01-12T02:47:08.317Z,951.59
2017-01-12T02:48:08.024Z,951.59
2017-01-12T02:49:07.474Z,951.50
2017-01-12T02:50:08.090Z,951.58
2017-01-12T02:51:07.725Z,951.64
2017-01-12T02:52:07.487Z,951.66
2017-01-12T02:53:08.109Z,951.74
2017-01-12T02:54:07.357Z,951.73
2017-01-12T02:55:07.628Z,951.68
2017-01-12T02:56:08.326Z,951.65
2017-01-12T02:57:08.164Z,951.66
2017-01-12T02:58:07.632Z,951.68
2017-01-12T02:59:08.300Z,951.79
2017-01-12T03:00:08.142Z,951.74
2017-01-12T03:01:07.744Z,951.84
2017-01-12T03:02:07.991Z,951.83
2017-01-12T03:03:07.538Z,951.75
2017-01-12T03:04:08.123Z,951.82
2017-01-12T03:05:17.875Z,951.79
2017-01-12T03:06:07.343Z,951.78
2017-01-12T03:07:08.019Z,951.89
2017-01-12T03:08:08.121Z,951.83
2017-01-12T03:09:07.696Z,951.82
2017-01-12T03:10:08.240Z,951.84
2017-01-12T03:11:08.312Z,951.78
2017-01-12T03:12:07.624Z,951.86
2017-01-12T03:13:08.055Z,951.86
2017-01-12T03:14:07.553Z,951.83
2017-01-12T03:15:07.925Z,951.93
2017-01-12T03:16:07.580Z,951.91
2017-01-12T03:17:08.365Z,951.95
2017-01-12T03:18:08.044Z,951.92
2017-01-12T03:19:07.872Z,951.95
2017-01-12T03:20:07.697Z,951.94
2017-01-12T03:21:08.184Z,951.94
2017-01-12T03:22:07.732Z,951.99
2017-01-12T03:23:07.330Z,951.99
2017-01-12T03:24:07.698Z,951.99
2017-01-12T03:25:08.525Z,951.98
2017-01-12T03:26:08.053Z,951.96
2017-01-12T03:27:07.816Z,952.00
2017-01-12T03:28:08.166Z,951.97
2017-01-12T03:29:07.394Z,951.98
2017-01-12T03:30:07.494Z,951.97
2017-01-12T03:31:08.369Z,952.02
2017-01-12T03:32:08.234Z,951.97
2017-01-12T03:33:08.155Z,951.96
2017-01-12T03:34:07.654Z,951.97
2017-01-12T03:35:08.025Z,952.05
2017-01-12T03:36:07.574Z,951.99
2017-01-12T03:37:08.109Z,951.95
2017-01-12T03:38:08.158Z,951.99
2017-01-12T03:39:07.639Z,952.02
2017-01-12T03:40:08.396Z,952.06
2017-01-12T03:41:07.897Z,952.06
2017-01-12T03:42:07.651Z,952.08
2017-01-12T03:43:08.283Z,952.12
2017-01-12T03:44:07.757Z,952.08
2017-01-12T03:45:08.084Z,952.11
2017-01-12T03:46:07.748Z,952.11
2017-01-12T03:47:07.251Z,952.07
2017-01-12T03:48:07.524Z,952.04
2017-01-12T03:49:07.997Z,952.07
2017-01-12T03:50:07.669Z,952.06
2017-01-12T03:51:08.146Z,952.08
2017-01-12T03:52:07.647Z,952.04
2017-01-12T03:53:08.160Z,952.03
2017-01-12T03:54:08.197Z,951.98
2017-01-12T03:55:07.813Z,952.05
2017-01-12T03:56:07.527Z,952.01
2017-01-12T03:57:07.806Z,952.09
2017-01-12T03:58:07.844Z,952.07
2017-01-12T03:59:07.464Z,952.06
2017-01-12T04:00:08.168Z,952.11
2017-01-12T04:01:07.632Z,952.08
2017-01-12T04:02:07.425Z,952.11
2017-01-12T04:03:07.977Z,952.07
2017-01-12T04:04:07.511Z,952.07
2017-01-12T04:05:08.441Z,952.13
2017-01-12T04:06:08.091Z,952.17
2017-01-12T04:07:07.591Z,952.18
2017-01-12T04:08:08.038Z,952.21
2017-01-12T04:09:07.479Z,952.23
2017-01-12T04:10:07.415Z,952.22
2017-01-12T04:11:07.475Z,952.19
2017-01-12T04:12:07.463Z,952.28
2017-01-12T04:13:08.357Z,952.24
2017-01-12T04:14:07.846Z,952.29
2017-01-12T04:15:07.484Z,952.32
2017-01-12T04:16:08.302Z,952.29
2017-01-12T04:17:08.137Z,952.29
2017-01-12T04:18:07.796Z,952.30
2017-01-12T04:19:07.345Z,952.25
2017-01-12T04:20:08.256Z,952.25
2017-01-12T04:21:08.133Z,952.23
2017-01-12T04:22:07.634Z,952.24
2017-01-12T04:23:08.067Z,952.23
2017-01-12T04:24:07.505Z,952.29
2017-01-12T04:25:08.049Z,952.34
2017-01-12T04:26:07.787Z,952.37
2017-01-12T04:27:07.537Z,952.36
2017-01-12T04:28:08.236Z,952.35
2017-01-12T04:29:08.453Z,952.27
2017-01-12T04:30:07.939Z,952.26
2017-01-12T04:31:08.029Z,952.29
2017-01-12T04:32:07.308Z,952.25
2017-01-12T04:33:07.857Z,952.28
2017-01-12T04:34:08.368Z,952.26
2017-01-12T04:35:17.979Z,952.29
2017-01-12T04:36:07.408Z,952.27
2017-01-12T04:37:07.654Z,952.32
2017-01-12T04:38:08.252Z,952.26
2017-01-12T04:39:07.870Z,952.28
2017-01-12T04:40:07.671Z,952.29
2017-01-12T04:41:08.498Z,952.34
2017-01-12T04:42:08.188Z,952.31
2017-01-12T04:43:07.791Z,952.31
2017-01-12T04:44:07.356Z,952.35
2017-01-12T04:45:08.266Z,952.26
2017-01-12T04:46:07.725Z,952.30
2017-01-12T04:47:08.507Z,952.33
2017-01-12T04:48:08.139Z,952.38
2017-01-12T04:49:07.667Z,952.34
2017-01-12T04:50:07.967Z,952.40
2017-01-12T04:51:07.606Z,952.39
2017-01-12T04:52:08.446Z,952.45
2017-01-12T04:53:07.939Z,952.44
2017-01-12T04:54:07.874Z,952.48
2017-01-12T04:55:07.367Z,952.46
2017-01-12T04:56:07.866Z,952.49
2017-01-12T04:57:07.869Z,952.47
2017-01-12T04:58:07.440Z,952.48
2017-01-12T04:59:07.365Z,952.51
2017-01-12T05:00:07.855Z,952.52
2017-01-12T05:01:07.349Z,952.54
2017-01-12T05:02:08.275Z,952.57
2017-01-12T05:03:07.909Z,952.61
2017-01-12T05:04:07.566Z,952.53
2017-01-12T05:05:08.049Z,952.47
2017-01-12T05:06:07.581Z,952.45
2017-01-12T05:07:08.408Z,952.51
2017-01-12T05:08:08.313Z,952.46
2017-01-12T05:09:07.806Z,952.49
2017-01-12T05:10:07.636Z,952.54
2017-01-12T05:11:07.827Z,952.55
2017-01-12T05:12:07.285Z,952.59
2017-01-12T05:13:07.796Z,952.62
2017-01-12T05:14:07.597Z,952.65
2017-01-12T05:15:08.876Z,952.62
2017-01-12T05:16:07.368Z,952.56
2017-01-12T05:17:07.660Z,952.63
2017-01-12T05:18:08.178Z,952.62
2017-01-12T05:19:07.709Z,952.61
2017-01-12T05:20:07.325Z,952.59
2017-01-12T05:21:07.915Z,952.63
2017-01-12T05:22:07.324Z,952.63
2017-01-12T05:23:28.651Z,952.58
2017-01-12T05:24:08.157Z,952.62
2017-01-12T05:25:10.512Z,952.63
2017-01-12T05:26:07.876Z,952.63
2017-01-12T05:27:08.073Z,952.65
2017-01-12T05:28:07.514Z,952.64
2017-01-12T05:29:07.597Z,952.65
2017-01-12T05:30:08.078Z,952.64
2017-01-12T05:31:07.464Z,952.70
2017-01-12T05:32:08.184Z,952.60
2017-01-12T05:33:08.232Z,952.65
2017-01-12T05:34:07.942Z,952.67
2017-01-12T05:36:17.638Z,952.66
2017-01-12T05:37:08.436Z,952.67
2017-01-12T05:38:08.286Z,952.73
2017-01-12T05:39:08.167Z,952.76
2017-01-12T05:40:07.626Z,952.75
2017-01-12T05:41:07.524Z,952.78
2017-01-12T05:42:08.121Z,952.80
2017-01-12T05:43:07.625Z,952.74
2017-01-12T05:44:08.099Z,952.81
2017-01-12T05:45:07.606Z,952.80
2017-01-12T05:46:08.219Z,952.80
2017-01-12T05:47:07.808Z,952.78
2017-01-12T05:48:07.460Z,952.84
2017-01-12T05:49:08.018Z,952.84
2017-01-12T05:50:07.604Z,952.82
2017-01-12T05:51:08.262Z,952.85
2017-01-12T05:52:07.977Z,952.90
2017-01-12T05:53:07.669Z,952.93
2017-01-12T05:54:07.521Z,952.87
2017-01-12T05:55:08.147Z,952.88
2017-01-12T05:56:07.671Z,952.91
2017-01-12T05:57:07.918Z,952.93
2017-01-12T05:58:07.379Z,952.87
2017-01-12T05:59:07.893Z,952.87
2017-01-12T06:00:07.697Z,952.90
2017-01-12T06:01:08.503Z,952.87
2017-01-12T06:02:08.270Z,952.93
2017-01-12T06:03:07.800Z,952.90
2017-01-12T06:04:07.339Z,952.88
2017-01-12T06:05:08.459Z,952.85
2017-01-12T06:06:07.909Z,952.86
2017-01-12T06:07:07.870Z,952.93
2017-01-12T06:08:07.759Z,952.93
2017-01-12T06:09:07.308Z,952.92
2017-01-12T06:10:07.842Z,952.90
2017-01-12T06:11:07.340Z,952.91
2017-01-12T06:12:08.172Z,952.95
2017-01-12T06:13:07.710Z,952.91
2017-01-12T06:14:07.561Z,952.91
2017-01-12T06:15:07.693Z,952.92
2017-01-12T06:16:07.415Z,952.92
2017-01-12T06:17:07.828Z,952.92
2017-01-12T06:18:07.386Z,952.87
2017-01-12T06:19:08.012Z,952.84
2017-01-12T06:20:07.925Z,952.88
2017-01-12T06:21:07.409Z,952.90
2017-01-12T06:22:07.967Z,952.88
2017-01-12T06:23:07.879Z,952.94
2017-01-12T06:24:07.524Z,952.94
2017-01-12T06:25:08.069Z,952.96
2017-01-12T06:26:07.548Z,952.96
2017-01-12T06:27:08.138Z,952.94
2017-01-12T06:28:07.687Z,952.99
2017-01-12T06:29:08.579Z,953.00
2017-01-12T06:30:08.107Z,953.05
2017-01-12T06:31:07.587Z,953.01
2017-01-12T06:32:08.191Z,953.01
2017-01-12T06:33:07.538Z,953.10
2017-01-12T06:34:08.274Z,953.06
2017-01-12T06:35:17.709Z,953.01
2017-01-12T06:36:08.722Z,953.01
2017-01-12T06:37:08.254Z,953.03
2017-01-12T06:38:08.424Z,953.00
2017-01-12T06:39:08.057Z,953.03
2017-01-12T06:40:08.076Z,953.09
2017-01-12T06:41:07.532Z,953.05
2017-01-12T06:42:07.480Z,953.09
2017-01-12T06:43:08.003Z,953.06
2017-01-12T06:44:07.552Z,953.03
2017-01-12T06:45:08.232Z,953.10
2017-01-12T06:46:08.026Z,953.05
2017-01-12T06:47:07.915Z,953.10
2017-01-12T06:48:07.415Z,953.12
2017-01-12T06:49:24.289Z,953.15
2017-01-12T06:50:08.109Z,953.13
2017-01-12T06:51:07.611Z,953.12
2017-01-12T06:52:08.332Z,953.14
2017-01-12T06:53:08.870Z,953.17
2017-01-12T06:54:17.477Z,953.14
2017-01-12T06:55:08.325Z,953.17
2017-01-12T06:56:07.944Z,953.18
2017-01-12T06:57:07.788Z,953.14
2017-01-12T06:58:07.318Z,953.20
2017-01-12T06:59:07.772Z,953.13
2017-01-12T07:00:28.778Z,953.14
2017-01-12T07:01:08.307Z,953.18
2017-01-12T07:02:08.091Z,953.15
2017-01-12T07:03:08.163Z,953.10
2017-01-12T07:04:07.853Z,953.16
2017-01-12T07:05:08.807Z,953.16
2017-01-12T07:06:07.334Z,953.14
2017-01-12T07:07:07.802Z,953.19
2017-01-12T07:08:07.386Z,953.10
2017-01-12T07:09:08.315Z,953.16
2017-01-12T07:10:08.133Z,953.14
2017-01-12T07:11:07.858Z,953.20
2017-01-12T07:12:07.383Z,953.14
2017-01-12T07:13:08.146Z,953.07
2017-01-12T07:14:07.664Z,953.09
2017-01-12T07:15:08.224Z,953.08
2017-01-12T07:16:08.238Z,953.06
2017-01-12T07:17:07.933Z,953.09
2017-01-12T07:18:08.023Z,953.10
2017-01-12T07:19:07.729Z,953.10
2017-01-12T07:20:08.517Z,953.14
2017-01-12T07:21:08.317Z,953.17
2017-01-12T07:22:08.154Z,953.12
2017-01-12T07:23:07.716Z,953.15
2017-01-12T07:24:07.728Z,953.15
2017-01-12T07:25:07.479Z,953.13
2017-01-12T07:26:07.783Z,953.14
2017-01-12T07:27:07.472Z,953.16
2017-01-12T07:28:08.107Z,953.14
2017-01-12T07:29:07.309Z,953.20
2017-01-12T07:30:07.993Z,953.21
2017-01-12T07:31:07.499Z,953.21
2017-01-12T07:32:08.086Z,953.25
2017-01-12T07:33:07.973Z,953.24
2017-01-12T07:34:07.854Z,953.25
2017-01-12T07:35:08.575Z,953.23
2017-01-12T07:36:08.097Z,953.19
2017-01-12T07:37:07.807Z,953.22
2017-01-12T07:38:08.319Z,953.25
2017-01-12T07:39:07.640Z,953.23
2017-01-12T07:40:08.201Z,953.26
2017-01-12T07:41:07.404Z,953.27
2017-01-12T07:42:07.292Z,953.26
2017-01-12T07:43:07.779Z,953.25
2017-01-12T07:44:07.596Z,953.24
2017-01-12T07:45:08.498Z,953.19
2017-01-12T07:46:08.401Z,953.21
2017-01-12T07:47:07.894Z,953.19
2017-01-12T07:48:07.598Z,953.18
2017-01-12T07:49:07.520Z,953.21
2017-01-12T07:50:08.975Z,953.16
2017-01-12T07:51:07.856Z,953.25
2017-01-12T07:52:07.420Z,953.25
2017-01-12T07:53:07.267Z,953.27
2017-01-12T07:54:07.767Z,953.22
2017-01-12T07:55:07.220Z,953.23
2017-01-12T07:56:07.754Z,953.23
2017-01-12T07:57:07.548Z,953.22
2017-01-12T07:58:08.120Z,953.18
2017-01-12T07:59:07.802Z,953.19
2017-01-12T08:00:07.526Z,953.18
2017-01-12T08:01:08.040Z,953.15
2017-01-12T08:02:07.499Z,953.18
2017-01-12T08:03:07.493Z,953.17
2017-01-12T08:04:08.181Z,953.20
2017-01-12T08:05:07.380Z,953.21
2017-01-12T08:06:08.244Z,953.24
2017-01-12T08:07:07.729Z,953.24
2017-01-12T08:08:08.503Z,953.26
2017-01-12T08:09:08.243Z,953.32
2017-01-12T08:10:08.080Z,953.32
2017-01-12T08:11:07.552Z,953.32
2017-01-12T08:12:08.004Z,953.31
2017-01-12T08:13:07.450Z,953.40
2017-01-12T08:14:07.622Z,953.41
2017-01-12T08:15:08.455Z,953.33
2017-01-12T08:16:08.228Z,953.39
2017-01-12T08:17:07.876Z,953.34
2017-01-12T08:18:07.403Z,953.33
2017-01-12T08:19:07.932Z,953.28
2017-01-12T08:20:07.652Z,953.41
2017-01-12T08:21:08.362Z,953.39
2017-01-12T08:22:08.299Z,953.37
2017-01-12T08:23:07.926Z,953.45
2017-01-12T08:24:07.513Z,953.45
2017-01-12T08:25:07.683Z,953.44
2017-01-12T08:26:08.161Z,953.47
2017-01-12T08:27:07.744Z,953.49
2017-01-12T08:28:08.251Z,953.50
2017-01-12T08:29:08.067Z,953.43
2017-01-12T08:30:07.572Z,953.41
2017-01-12T08:31:08.460Z,953.45
2017-01-12T08:32:08.399Z,953.42
2017-01-12T08:33:08.277Z,953.40
2017-01-12T08:34:07.923Z,953.42
2017-01-12T08:35:08.193Z,953.36
2017-01-12T08:36:07.882Z,953.44
2017-01-12T08:37:07.520Z,953.38
2017-01-12T08:38:08.066Z,953.40
2017-01-12T08:39:07.985Z,953.43
2017-01-12T08:40:08.408Z,953.48
2017-01-12T08:41:07.893Z,953.49
2017-01-12T08:42:07.787Z,953.48
2017-01-12T08:43:07.544Z,953.48
2017-01-12T08:44:08.100Z,953.52
2017-01-12T08:45:07.834Z,953.48
2017-01-12T08:46:07.639Z,953.49
2017-01-12T08:47:08.339Z,953.47
2017-01-12T08:48:07.980Z,953.50
2017-01-12T08:49:07.748Z,953.56
2017-01-12T08:50:08.188Z,953.47
2017-01-12T08:51:07.723Z,953.47
2017-01-12T08:52:08.225Z,953.45
2017-01-12T08:53:08.024Z,953.47
2017-01-12T08:54:07.963Z,953.49
2017-01-12T08:55:07.521Z,953.48
2017-01-12T08:56:08.240Z,953.55
2017-01-12T08:57:08.099Z,953.56
2017-01-12T08:58:07.621Z,953.57
2017-01-12T08:59:08.312Z,953.51
2017-01-12T09:00:07.990Z,953.49
2017-01-12T09:01:07.481Z,953.47
2017-01-12T09:02:07.994Z,953.55
2017-01-12T09:03:08.409Z,953.48
2017-01-12T09:04:08.058Z,953.52
2017-01-12T09:05:07.591Z,953.51
2017-01-12T09:06:08.385Z,953.49
2017-01-12T09:07:08.157Z,953.57
2017-01-12T09:08:07.613Z,953.52
2017-01-12T09:09:08.157Z,953.53
2017-01-12T09:10:07.801Z,953.54
2017-01-12T09:11:07.318Z,953.46
2017-01-12T09:12:07.859Z,953.56
2017-01-12T09:13:07.762Z,953.54
2017-01-12T09:14:07.333Z,953.54
2017-01-12T09:15:07.913Z,953.50
2017-01-12T09:16:08.135Z,953.53
2017-01-12T09:17:08.030Z,953.44
2017-01-12T09:18:07.831Z,953.43
2017-01-12T09:19:07.261Z,953.43
2017-01-12T09:20:08.161Z,953.37
2017-01-12T09:21:07.707Z,953.41
2017-01-12T09:22:08.242Z,953.40
2017-01-12T09:23:07.836Z,953.38
2017-01-12T09:24:08.154Z,953.38
2017-01-12T09:25:07.663Z,953.42
2017-01-12T09:26:08.289Z,953.44
2017-01-12T09:27:07.795Z,953.46
2017-01-12T09:28:07.431Z,953.43
2017-01-12T09:29:07.994Z,953.47
2017-01-12T09:30:07.518Z,953.42
2017-01-12T09:31:08.072Z,953.47
2017-01-12T09:32:07.567Z,953.46
2017-01-12T09:33:08.105Z,953.52
2017-01-12T09:34:08.176Z,953.50
2017-01-12T09:35:07.828Z,953.51
2017-01-12T09:36:07.304Z,953.53
2017-01-12T09:37:07.839Z,953.54
2017-01-12T09:38:07.312Z,953.50
2017-01-12T09:39:07.856Z,953.53
2017-01-12T09:40:07.811Z,953.46
2017-01-12T09:41:07.556Z,953.54
2017-01-12T09:42:08.369Z,953.49
2017-01-12T09:43:08.216Z,953.46
2017-01-12T09:44:07.840Z,953.48
2017-01-12T09:45:07.382Z,953.46
2017-01-12T09:46:08.028Z,953.46
2017-01-12T09:47:07.773Z,953.40
2017-01-12T09:48:07.293Z,953.39
2017-01-12T09:49:07.783Z,953.40
2017-01-12T09:50:07.513Z,953.40
2017-01-12T09:51:08.293Z,953.34
2017-01-12T09:52:07.916Z,953.39
2017-01-12T09:53:07.422Z,953.43
2017-01-12T09:54:08.253Z,953.39
2017-01-12T09:55:07.783Z,953.40
2017-01-12T09:56:07.464Z,953.31
2017-01-12T09:57:07.766Z,953.42
2017-01-12T09:58:08.585Z,953.33
2017-01-12T09:59:08.140Z,953.26
2017-01-12T10:00:07.685Z,953.24
2017-01-12T10:01:08.304Z,953.25
2017-01-12T10:02:07.575Z,953.22
2017-01-12T10:03:08.340Z,953.19
2017-01-12T10:04:08.107Z,953.22
2017-01-12T10:05:07.870Z,953.23
2017-01-12T10:06:07.428Z,953.21
2017-01-12T10:07:08.220Z,953.18
2017-01-12T10:08:07.947Z,953.11
2017-01-12T10:09:07.761Z,953.16
2017-01-12T10:10:08.557Z,953.09
2017-01-12T10:11:08.154Z,953.07
2017-01-12T10:12:07.670Z,953.07
2017-01-12T10:13:08.603Z,953.06
2017-01-12T10:14:08.377Z,953.05
2017-01-12T10:15:07.872Z,953.06
2017-01-12T10:16:07.871Z,953.04
2017-01-12T10:17:07.580Z,953.05
2017-01-12T10:18:08.095Z,953.03
2017-01-12T10:19:07.889Z,953.10
2017-01-12T10:20:07.617Z,953.00
2017-01-12T10:21:07.780Z,953.02
2017-01-12T10:22:08.016Z,952.96
2017-01-12T10:23:07.834Z,952.96
2017-01-12T10:24:07.387Z,953.01
2017-01-12T10:25:07.952Z,952.99
2017-01-12T10:26:07.948Z,952.96
2017-01-12T10:27:07.735Z,952.94
2017-01-12T10:28:08.381Z,952.90
2017-01-12T10:29:08.013Z,952.86
2017-01-12T10:30:08.069Z,952.85
2017-01-12T10:31:07.889Z,952.88
2017-01-12T10:32:07.486Z,952.79
2017-01-12T10:33:07.977Z,952.81
2017-01-12T10:34:07.725Z,952.79
2017-01-12T10:35:08.635Z,952.78
2017-01-12T10:36:08.291Z,952.86
2017-01-12T10:37:07.724Z,952.85
2017-01-12T10:38:08.251Z,952.77
2017-01-12T10:39:07.698Z,952.82
2017-01-12T10:40:08.578Z,952.83
2017-01-12T10:41:08.150Z,952.86
2017-01-12T10:42:07.965Z,952.85
2017-01-12T10:43:08.549Z,952.83
2017-01-12T10:44:08.314Z,952.86
2017-01-12T10:45:08.059Z,952.84
2017-01-12T10:46:07.502Z,952.83
2017-01-12T10:47:07.652Z,952.88
2017-01-12T10:48:08.235Z,952.83
2017-01-12T10:49:07.765Z,952.84
2017-01-12T10:50:08.594Z,952.82
2017-01-12T10:51:08.317Z,952.75
2017-01-12T10:52:07.876Z,952.76
2017-01-12T10:53:07.372Z,952.76
2017-01-12T10:54:08.496Z,952.74
2017-01-12T10:55:08.089Z,952.78
2017-01-12T10:56:08.507Z,952.68
2017-01-12T10:57:08.051Z,952.66
2017-01-12T10:58:07.442Z,952.70
2017-01-12T10:59:07.991Z,952.66
2017-01-12T11:00:07.553Z,952.66
2017-01-12T11:01:08.183Z,952.65
2017-01-12T11:02:07.966Z,952.66
2017-01-12T11:03:07.508Z,952.59
2017-01-12T11:04:07.833Z,952.57
2017-01-12T11:05:07.385Z,952.58
2017-01-12T11:06:08.199Z,952.50
2017-01-12T11:07:07.427Z,952.50
2017-01-12T11:08:08.356Z,952.46
2017-01-12T11:09:07.924Z,952.44
2017-01-12T11:10:07.424Z,952.45
2017-01-12T11:11:07.961Z,952.47
2017-01-12T11:12:07.488Z,952.45
2017-01-12T11:13:07.953Z,952.42
2017-01-12T11:14:07.492Z,952.41
2017-01-12T11:15:08.190Z,952.43
2017-01-12T11:16:07.970Z,952.39
2017-01-12T11:17:07.741Z,952.41
2017-01-12T11:18:07.638Z,952.44
2017-01-12T11:19:07.248Z,952.33
2017-01-12T11:20:08.313Z,952.32
2017-01-12T11:21:07.917Z,952.30
2017-01-12T11:22:07.626Z,952.31
2017-01-12T11:23:08.326Z,952.28
2017-01-12T11:24:08.138Z,952.23
2017-01-12T11:25:07.816Z,952.27
2017-01-12T11:26:07.518Z,952.25
2017-01-12T11:27:08.095Z,952.21
2017-01-12T11:28:07.678Z,952.20
2017-01-12T11:29:08.315Z,952.13
2017-01-12T11:30:08.184Z,952.17
2017-01-12T11:31:08.271Z,952.18
2017-01-12T11:32:07.827Z,952.13
2017-01-12T11:33:08.290Z,952.16
2017-01-12T11:34:07.971Z,952.02
2017-01-12T11:35:07.490Z,952.11
2017-01-12T11:36:07.881Z,952.05
2017-01-12T11:37:07.706Z,952.02
2017-01-12T11:38:08.222Z,952.02
2017-01-12T11:39:07.838Z,952.04
2017-01-12T11:40:07.441Z,951.98
2017-01-12T11:41:08.052Z,952.01
2017-01-12T11:42:07.886Z,951.96
2017-01-12T11:43:07.480Z,951.89
2017-01-12T11:44:07.755Z,952.04
2017-01-12T11:45:07.349Z,951.88
2017-01-12T11:46:07.929Z,951.99
2017-01-12T11:47:07.893Z,952.05
2017-01-12T11:48:07.463Z,951.94
2017-01-12T11:49:08.239Z,951.98
2017-01-12T11:50:07.958Z,951.89
2017-01-12T11:51:07.437Z,951.93
2017-01-12T11:52:08.196Z,951.87
2017-01-12T11:53:07.773Z,951.89
2017-01-12T11:54:07.283Z,951.86
2017-01-12T11:55:07.810Z,951.87
2017-01-12T11:56:07.424Z,951.89
2017-01-12T11:57:08.358Z,951.87
2017-01-12T11:58:08.146Z,951.88
2017-01-12T11:59:07.715Z,951.97
2017-01-12T12:00:07.696Z,951.91
2017-01-12T12:01:08.343Z,951.97
2017-01-12T12:02:08.108Z,951.97
2017-01-12T12:03:07.549Z,951.94
2017-01-12T12:04:08.248Z,951.98
2017-01-12T12:05:08.251Z,951.89
2017-01-12T12:06:08.094Z,951.93
2017-01-12T12:07:07.679Z,951.81
2017-01-12T12:08:08.260Z,951.91
2017-01-12T12:09:07.823Z,951.87
2017-01-12T12:10:07.290Z,951.82
2017-01-12T12:11:08.026Z,951.77
2017-01-12T12:12:07.699Z,951.79
2017-01-12T12:13:08.565Z,951.79
2017-01-12T12:14:08.417Z,951.78
2017-01-12T12:15:08.010Z,951.75
2017-01-12T12:16:07.748Z,951.82
2017-01-12T12:17:07.487Z,951.71
2017-01-12T12:18:07.458Z,951.73
2017-01-12T12:19:08.012Z,951.74
2017-01-12T12:20:07.471Z,951.67
2017-01-12T12:21:08.185Z,951.74
2017-01-12T12:22:08.032Z,951.71
2017-01-12T12:23:07.819Z,951.67
2017-01-12T12:24:07.296Z,951.66
2017-01-12T12:25:08.386Z,951.62
2017-01-12T12:26:07.938Z,951.58
2017-01-12T12:27:07.427Z,951.63
2017-01-12T12:28:08.051Z,951.57
2017-01-12T12:29:07.896Z,951.61